Home   Weather   USA   Hartford   Past weeks
Flag for USA

Past Weather in Hartford, Wisconsin, USA — Yesterday and Last 2 Weeks

Currently: 33 °F. Sunny. (Weather station: Dodge County Airport, USA). See more current weather

Past Weather in Hartford — Graph

°F

Hartford Temperature Yesterday

Maximum temperature yesterday: 51 °F (at 3:35 pm)
Minimum temperature yesterday: 33 °F (at 7:35 am)
Average temperature yesterday: 43 °F

High & Low Weather Summary for the Past Weeks

 TemperatureHumidityPressure
High75 °F (Oct 9, 3:15 pm)100% (Oct 9, 7:15 am)30.13 "Hg (Oct 9, 7:15 am)
Low32 °F (Oct 22, 4:55 am)32% (Oct 17, 3:35 pm)29.63 "Hg (Oct 10, 9:15 am)
Average54 °F79%29.93 "Hg
* Reported Oct 9 7:15 am — Oct 24 7:15 am, Hartford. Weather by CustomWeather, © 2021

Note: Actual official high and low records may vary slightly from our data, if they occured in-between our weather recording intervals... More about our weather records

Hartford Weather History for the Previous 24 Hours

Scroll right to see more
 ConditionsComfort  
Time TempWeatherWind HumidityBarometerVisibility
7:15 am
Sun, Oct 24
33 °FPassing clouds.No wind97%30.00 "Hg10 mi
6:35 am32 °FPassing clouds.No wind98%30.00 "Hg10 mi
6:15 am32 °FPassing clouds.No wind99%30.00 "Hg10 mi
5:15 am33 °FFog.No wind96%30.00 "Hg5 mi
4:55 am33 °FFog.No wind96%30.01 "Hg5 mi
11:55 pm
Sat, Oct 23
36 °FClear.No wind90%30.05 "Hg10 mi
11:15 pm37 °FClear.No wind84%30.04 "Hg10 mi
10:35 pm38 °FClear.No wind83%30.04 "Hg10 mi
9:55 pm39 °FClear.No wind77%30.03 "Hg10 mi
8:55 pm42 °FClear.No wind68%30.03 "Hg10 mi
7:55 pm41 °FClear.No wind71%30.04 "Hg10 mi
6:35 pm44 °FClear.No wind61%30.03 "Hg10 mi
6:15 pm46 °FClear.No wind57%30.02 "Hg10 mi
5:55 pm48 °FSunny.No wind52%30.02 "Hg10 mi
5:35 pm49 °FSunny.No wind51%30.01 "Hg10 mi
5:15 pm49 °FSunny.No wind51%30.01 "Hg10 mi
4:55 pm50 °FSunny.No wind51%30.01 "Hg10 mi
4:35 pm50 °FSunny.No wind50%30.02 "Hg10 mi
3:55 pm50 °FSunny.No wind50%30.02 "Hg10 mi
3:35 pm51 °FSunny.No wind50%30.02 "Hg10 mi
3:15 pm50 °FSunny.No wind49%30.03 "Hg10 mi
2:35 pm50 °FSunny.No wind50%30.04 "Hg10 mi
2:15 pm50 °FScattered clouds.No wind51%30.04 "Hg10 mi
1:55 pm49 °FScattered clouds.No wind50%30.04 "Hg10 mi
1:35 pm49 °FSunny.No wind50%30.05 "Hg10 mi
1:15 pm48 °FSunny.3 mph51%30.05 "Hg10 mi
12:55 pm48 °FSunny.5 mph49%30.06 "Hg10 mi
12:35 pm48 °FSunny.6 mph51%30.06 "Hg10 mi
12:15 pm47 °FSunny.No wind51%30.07 "Hg10 mi
11:55 am47 °FSunny.5 mph51%30.07 "Hg10 mi
11:35 am47 °FSunny.5 mph53%30.07 "Hg10 mi
11:15 am46 °FSunny.7 mph54%30.07 "Hg10 mi
10:55 am46 °FSunny.6 mph54%30.07 "Hg10 mi
10:35 am46 °FSunny.5 mph55%30.07 "Hg10 mi
10:15 am45 °FScattered clouds.No wind56%30.07 "Hg10 mi
9:55 am44 °FPartly sunny.No wind62%30.07 "Hg10 mi
9:35 am43 °FPartly sunny.No wind75%30.07 "Hg10 mi
9:15 am40 °FScattered clouds.No wind83%30.07 "Hg10 mi
8:35 am36 °FSunny.No wind90%30.06 "Hg10 mi
8:15 am35 °FSunny.No wind94%30.05 "Hg10 mi
Weather by CustomWeather, © 2021

See weather overview